Time;durP1;ratioP1;P1;durP2;ratioP2;P2;SDS_P1;SDS_P2;PMS_P1;PMS_P2;Temp;Humidity;BMP_temperature;BMP_pressure;BME280_temperature;BME280_humidity;BME280_pressure;Samples;Min_cycle;Max_cycle;Signal;HPM_P1;HPM_P2
2023/06/15 03:53:50;;;;;;;6.72;4.70;;;;;;;13.95;100.00;100330.62;5941984;28;20117;-85
2023/06/15 03:56:53;;;;;;;5.62;4.50;;;;;;;13.96;100.00;100330.44;5254310;33;33408;-85
2023/06/15 03:59:56;;;;;;;6.28;4.60;;;;;;;14.01;100.00;100330.69;5241782;33;34076;-85
2023/06/15 04:02:59;;;;;;;7.97;4.70;;;;;;;14.05;100.00;100331.09;5254519;33;32955;-84
2023/06/15 04:06:04;;;;;;;7.62;4.12;;;;;;;14.07;100.00;100329.88;5253340;33;32989;-84
2023/06/15 04:09:06;;;;;;;6.40;3.95;;;;;;;14.21;100.00;100336.16;5242048;33;34024;-84
2023/06/15 04:12:10;;;;;;;7.10;4.65;;;;;;;14.36;100.00;100337.88;5253163;33;34321;-84
2023/06/15 04:15:13;;;;;;;8.23;3.92;;;;;;;14.46;100.00;100338.34;5253080;33;33444;-84
2023/06/15 04:18:19;;;;;;;5.95;4.20;;;;;;;14.54;100.00;100338.19;5234231;33;34163;-85
2023/06/15 04:21:22;;;;;;;7.18;4.05;;;;;;;14.68;100.00;100334.47;5241519;33;33483;-85
2023/06/15 04:24:25;;;;;;;7.78;4.20;;;;;;;14.81;100.00;100336.34;5230180;33;32975;-84
2023/06/15 04:27:28;;;;;;;5.15;3.95;;;;;;;14.98;100.00;100335.97;5240438;33;33354;-84
2023/06/15 04:30:32;;;;;;;6.00;4.15;;;;;;;15.08;100.00;100331.78;5241806;33;33004;-85
2023/06/15 04:33:42;;;;;;;5.70;3.90;;;;;;;15.25;100.00;100329.47;5241560;33;33656;-84
2023/06/15 04:36:48;;;;;;;5.12;4.00;;;;;;;15.29;100.00;100336.13;5254096;33;34521;-84
2023/06/15 04:39:52;;;;;;;5.05;3.80;;;;;;;15.33;100.00;100344.72;5242336;33;33277;-84
2023/06/15 04:42:57;;;;;;;5.78;4.45;;;;;;;15.48;100.00;100347.19;5242275;33;33742;-85
2023/06/15 04:46:01;;;;;;;4.32;3.53;;;;;;;15.60;100.00;100346.34;5242164;33;32119;-84
2023/06/15 04:49:04;;;;;;;7.22;3.80;;;;;;;15.69;100.00;100346.16;5241590;33;33360;-84
2023/06/15 04:52:07;;;;;;;7.25;3.92;;;;;;;15.72;100.00;100354.69;5230105;33;32978;-85
2023/06/15 04:55:11;;;;;;;6.25;3.83;;;;;;;15.86;100.00;100350.91;5241953;33;33375;-84
2023/06/15 04:58:17;;;;;;;5.07;3.90;;;;;;;15.83;100.00;100351.34;5242086;33;33733;-88
2023/06/15 05:01:21;;;;;;;7.37;4.12;;;;;;;15.94;100.00;100349.84;5230405;33;33869;-88
2023/06/15 05:04:24;;;;;;;6.10;3.87;;;;;;;16.07;100.00;100355.22;5241794;33;33910;-89
2023/06/15 05:07:28;;;;;;;5.82;4.15;;;;;;;16.22;100.00;100354.94;5241738;33;33441;-87
2023/06/15 05:10:30;;;;;;;7.47;4.20;;;;;;;16.35;100.00;100350.50;5255227;33;33529;-84
2023/06/15 05:13:48;;;;;;;8.13;4.47;;;;;;;16.35;100.00;100366.81;5243711;33;33471;-84
2023/06/15 05:16:51;;;;;;;4.43;4.00;;;;;;;16.32;100.00;100370.78;5241071;33;34399;-84
2023/06/15 05:19:54;;;;;;;8.52;3.87;;;;;;;16.23;100.00;100367.50;5254197;33;33471;-85
2023/06/15 05:22:57;;;;;;;4.10;3.25;;;;;;;16.61;100.00;100365.84;5233868;33;33100;-85
2023/06/15 05:26:00;;;;;;;5.87;4.45;;;;;;;16.77;100.00;100366.19;5254964;33;33662;-84
2023/06/15 05:29:04;;;;;;;6.62;4.30;;;;;;;17.00;100.00;100370.25;5253472;33;33892;-84
2023/06/15 05:32:08;;;;;;;7.35;3.92;;;;;;;17.22;97.07;100381.56;5231516;33;33156;-84
2023/06/15 05:35:11;;;;;;;7.20;4.18;;;;;;;17.33;96.46;100380.84;5255890;33;34493;-84
2023/06/15 05:38:15;;;;;;;7.70;4.50;;;;;;;17.46;95.26;100377.16;5247265;33;32826;-84
2023/06/15 05:41:18;;;;;;;7.07;4.30;;;;;;;17.62;94.09;100379.34;5234787;33;33669;-85
2023/06/15 05:44:21;;;;;;;4.37;3.97;;;;;;;17.65;94.49;100378.88;5260615;33;34925;-84
2023/06/15 05:47:24;;;;;;;6.07;4.22;;;;;;;17.78;93.96;100374.38;5251242;33;33334;-84
2023/06/15 05:50:28;;;;;;;6.87;4.45;;;;;;;17.70;93.57;100378.22;5273141;33;34186;-84
2023/06/15 05:53:30;;;;;;;7.60;3.97;;;;;;;17.94;93.39;100378.44;5279647;33;34785;-84
2023/06/15 05:56:33;;;;;;;6.15;4.00;;;;;;;18.10;91.41;100394.16;5244187;33;33495;-84
2023/06/15 05:59:36;;;;;;;5.90;4.32;;;;;;;18.13;90.85;100391.84;5254811;33;34057;-84
2023/06/15 06:02:41;;;;;;;7.72;4.30;;;;;;;18.28;89.90;100393.31;5230549;33;33312;-84
2023/06/15 06:05:45;;;;;;;7.03;3.92;;;;;;;18.38;88.44;100384.62;5230152;33;33290;-84
2023/06/15 06:08:47;;;;;;;6.55;3.87;;;;;;;18.43;87.09;100385.59;5230625;33;34458;-84
2023/06/15 06:11:50;;;;;;;5.70;3.72;;;;;;;18.43;88.07;100382.87;5268062;33;34111;-84
2023/06/15 06:14:53;;;;;;;9.23;4.50;;;;;;;18.54;87.68;100383.97;5259067;33;33544;-84
2023/06/15 06:17:56;;;;;;;5.97;3.80;;;;;;;18.67;88.19;100389.25;5247444;33;34173;-84
2023/06/15 06:21:10;;;;;;;7.05;4.32;;;;;;;18.83;87.42;100390.53;5272853;33;32867;-84
2023/06/15 06:24:14;;;;;;;9.38;4.30;;;;;;;18.85;88.60;100398.50;5270826;33;33624;-84
2023/06/15 06:27:17;;;;;;;7.95;4.15;;;;;;;18.85;86.95;100390.31;5259174;33;32875;-84
2023/06/15 06:30:20;;;;;;;4.72;4.05;;;;;;;18.77;87.96;100394.19;5258950;33;32847;-84
2023/06/15 06:33:23;;;;;;;6.28;4.07;;;;;;;18.77;88.66;100388.72;5258460;33;33186;-84
2023/06/15 06:36:27;;;;;;;8.75;4.30;;;;;;;18.76;87.75;100392.53;5259103;33;33020;-84
2023/06/15 06:39:30;;;;;;;8.20;4.25;;;;;;;19.09;86.41;100392.03;5272201;33;33070;-84
2023/06/15 06:42:34;;;;;;;6.78;4.12;;;;;;;19.19;85.05;100392.31;5272260;33;32942;-84
2023/06/15 06:45:37;;;;;;;8.27;4.50;;;;;;;19.27;85.53;100393.84;5254217;33;33076;-84
2023/06/15 06:48:40;;;;;;;6.25;4.82;;;;;;;19.37;84.59;100385.09;5255183;33;32915;-84
2023/06/15 06:51:42;;;;;;;6.20;4.20;;;;;;;19.59;83.15;100390.78;5249614;33;33449;-84
2023/06/15 06:54:45;;;;;;;7.57;4.80;;;;;;;19.63;84.27;100392.81;5244000;33;33130;-85
2023/06/15 06:57:48;;;;;;;6.95;4.65;;;;;;;19.81;83.12;100391.06;5254707;33;33434;-84
2023/06/15 07:00:51;;;;;;;8.13;4.50;;;;;;;20.03;81.67;100391.28;5239738;33;34069;-88
2023/06/15 07:03:54;;;;;;;7.43;4.45;;;;;;;20.14;80.68;100391.25;5228687;33;34093;-89
2023/06/15 07:06:57;;;;;;;6.22;4.10;;;;;;;20.57;81.46;100391.91;5253279;33;33058;-89
2023/06/15 07:09:59;;;;;;;7.30;4.35;;;;;;;20.83;79.29;100398.69;5240566;33;33450;-89
2023/06/15 07:13:02;;;;;;;6.87;4.87;;;;;;;20.65;77.52;100391.50;5253801;33;32994;-85
2023/06/15 07:16:06;;;;;;;12.55;4.43;;;;;;;20.65;76.98;100383.31;5253017;33;33607;-85
2023/06/15 07:19:11;;;;;;;9.60;4.55;;;;;;;20.95;76.01;100376.72;5241003;33;34556;-85
2023/06/15 07:22:14;;;;;;;8.68;4.68;;;;;;;20.89;75.80;100384.03;5228772;33;33403;-85
2023/06/15 07:25:17;;;;;;;7.78;4.30;;;;;;;21.02;75.28;100375.47;5230686;33;34640;-84
2023/06/15 07:28:20;;;;;;;8.70;4.45;;;;;;;21.28;74.56;100376.75;5253425;33;32881;-85
2023/06/15 07:31:23;;;;;;;7.32;4.43;;;;;;;21.38;74.61;100376.13;5243385;33;33443;-84
2023/06/15 07:34:26;;;;;;;7.75;3.92;;;;;;;21.42;73.25;100366.31;5244018;33;33654;-85
2023/06/15 07:37:29;;;;;;;6.47;4.30;;;;;;;21.57;72.90;100365.72;5235581;33;33723;-84
2023/06/15 07:40:32;;;;;;;6.82;4.07;;;;;;;21.57;72.55;100370.38;5242380;33;33162;-85
2023/06/15 07:43:35;;;;;;;5.20;4.07;;;;;;;21.74;72.21;100363.78;5243684;33;34466;-84
2023/06/15 07:46:39;;;;;;;6.10;3.92;;;;;;;21.74;71.45;100362.97;5229083;33;33683;-84
2023/06/15 07:49:42;;;;;;;5.40;4.07;;;;;;;21.88;70.79;100363.41;5253157;33;33330;-84
2023/06/15 07:52:51;;;;;;;5.40;4.10;;;;;;;22.02;69.77;100363.88;5240763;33;33166;-85
2023/06/15 07:55:53;;;;;;;8.88;4.12;;;;;;;21.80;70.35;100358.41;5240603;33;33994;-84
2023/06/15 07:58:57;;;;;;;4.75;4.22;;;;;;;22.00;69.64;100358.69;5255595;33;33078;-84
2023/06/15 08:02:02;;;;;;;8.73;4.20;;;;;;;22.02;68.90;100361.16;5235685;33;33403;-85
2023/06/15 08:05:06;;;;;;;6.75;4.03;;;;;;;22.02;68.13;100358.41;5253505;33;32987;-85
2023/06/15 08:08:11;;;;;;;4.45;3.80;;;;;;;22.11;65.88;100359.63;5253823;33;33294;-85
2023/06/15 08:11:16;;;;;;;5.45;3.90;;;;;;;22.09;66.32;100357.16;5241286;33;33121;-85
2023/06/15 08:14:19;;;;;;;5.22;3.60;;;;;;;22.06;67.73;100362.31;5223091;34;33416;-85
2023/06/15 08:17:25;;;;;;;5.85;3.40;;;;;;;22.24;64.52;100356.53;5233724;33;33652;-85
2023/06/15 08:20:27;;;;;;;4.87;3.67;;;;;;;22.53;61.94;100359.91;5270854;33;34842;-85
2023/06/15 08:23:30;;;;;;;4.72;3.55;;;;;;;22.66;57.43;100353.16;5244497;33;34531;-85
2023/06/15 08:26:33;;;;;;;4.85;3.17;;;;;;;22.83;56.55;100359.37;5254608;33;33373;-85
2023/06/15 08:29:36;;;;;;;4.22;3.25;;;;;;;22.87;52.20;100344.06;5237694;34;33235;-85
2023/06/15 08:32:39;;;;;;;5.68;3.40;;;;;;;22.82;51.49;100351.41;5261352;33;33813;-85
2023/06/15 08:35:42;;;;;;;5.90;3.65;;;;;;;22.95;48.10;100348.25;5240537;33;34483;-85
2023/06/15 08:38:45;;;;;;;5.37;3.47;;;;;;;23.14;47.47;100350.59;5230030;33;34114;-85
2023/06/15 08:41:48;;;;;;;3.53;3.22;;;;;;;23.08;45.24;100355.25;5241503;33;34966;-85
2023/06/15 08:44:54;;;;;;;4.53;3.42;;;;;;;23.00;44.93;100352.97;5255517;33;33419;-85
2023/06/15 08:48:00;;;;;;;5.07;3.03;;;;;;;23.29;46.25;100356.25;5230396;33;33422;-85
2023/06/15 08:51:05;;;;;;;5.57;3.50;;;;;;;23.49;44.83;100339.91;5242032;33;34025;-85
2023/06/15 08:54:09;;;;;;;3.47;2.83;;;;;;;23.52;44.41;100347.62;5246997;33;33385;-85
2023/06/15 08:57:12;;;;;;;5.10;3.17;;;;;;;23.80;44.43;100344.81;5260718;33;33075;-85
2023/06/15 09:00:19;;;;;;;5.85;3.33;;;;;;;23.94;43.93;100346.81;5233484;33;33353;-85
2023/06/15 09:03:24;;;;;;;8.95;3.58;;;;;;;24.16;42.83;100345.78;5243314;33;33753;-88
2023/06/15 09:06:27;;;;;;;3.85;3.00;;;;;;;24.24;41.50;100337.03;5233640;33;34221;-89
2023/06/15 09:09:30;;;;;;;4.22;3.28;;;;;;;24.47;43.64;100338.50;5248169;33;33147;-89
2023/06/15 09:12:33;;;;;;;3.60;3.00;;;;;;;24.26;39.84;100334.84;5228473;34;33562;-89
2023/06/15 09:15:36;;;;;;;6.32;3.22;;;;;;;24.23;39.40;100340.88;5237722;34;33329;-86
2023/06/15 09:18:51;;;;;;;5.12;3.00;;;;;;;24.51;40.60;100336.88;5241713;34;33404;-85
2023/06/15 09:21:55;;;;;;;6.72;3.03;;;;;;;24.59;40.40;100335.50;5242427;33;33200;-85
2023/06/15 09:24:58;;;;;;;3.78;3.20;;;;;;;24.93;37.74;100330.34;5229512;33;33031;-85
2023/06/15 09:28:04;;;;;;;11.98;3.72;;;;;;;25.15;39.66;100332.84;5253888;33;33439;-84
2023/06/15 09:31:08;;;;;;;3.35;3.00;;;;;;;25.22;39.15;100327.88;5244667;33;33796;-85
2023/06/15 09:34:12;;;;;;;7.05;3.20;;;;;;;24.95;37.75;100333.66;5225718;34;32924;-85
2023/06/15 09:37:16;;;;;;;4.12;3.10;;;;;;;25.12;38.49;100325.91;5238287;34;34191;-85
2023/06/15 09:40:18;;;;;;;5.18;2.78;;;;;;;25.35;38.85;100323.72;5240134;34;34280;-85
2023/06/15 09:43:33;;;;;;;3.22;2.90;;;;;;;25.31;38.77;100317.97;5234491;34;33392;-85
2023/06/15 09:46:38;;;;;;;3.45;2.97;;;;;;;25.65;38.22;100309.06;5235606;34;33043;-85
2023/06/15 09:49:44;;;;;;;5.03;2.92;;;;;;;25.73;38.23;100313.19;5234615;34;34227;-85
2023/06/15 09:52:49;;;;;;;3.67;3.17;;;;;;;25.78;37.72;100311.22;5235948;34;34348;-85
2023/06/15 09:55:52;;;;;;;4.72;3.20;;;;;;;26.07;37.43;100318.06;5246244;33;33950;-85
2023/06/15 09:58:55;;;;;;;4.07;3.03;;;;;;;26.20;35.64;100309.97;5239690;33;33585;-86
2023/06/15 10:02:00;;;;;;;3.28;2.97;;;;;;;26.33;34.45;100307.72;5250956;33;33245;-86
2023/06/15 10:05:09;;;;;;;2.85;2.65;;;;;;;25.99;34.26;100303.72;5238594;33;33386;-86
2023/06/15 10:08:15;;;;;;;3.67;2.58;;;;;;;26.12;33.87;100304.22;5253782;33;33281;-86
2023/06/15 10:11:20;;;;;;;3.35;3.00;;;;;;;26.52;33.17;100305.97;5253761;33;34415;-85
2023/06/15 10:14:35;;;;;;;4.90;3.12;;;;;;;27.09;34.34;100306.41;5253587;33;34267;-85
2023/06/15 10:17:41;;;;;;;3.58;2.97;;;;;;;27.10;33.22;100300.56;5251585;33;33421;-86
2023/06/15 10:20:44;;;;;;;4.50;2.75;;;;;;;27.58;30.58;100286.84;5234324;34;32398;-86
2023/06/15 10:23:51;;;;;;;6.87;3.05;;;;;;;27.72;31.73;100278.66;5236192;33;32968;-86
2023/06/15 10:26:54;;;;;;;5.75;3.12;;;;;;;27.88;32.03;100293.19;5253993;33;33419;-85
2023/06/15 10:30:08;;;;;;;3.47;2.55;;;;;;;27.95;33.11;100281.75;5261528;33;33650;-85
2023/06/15 10:33:49;;;;;;;3.85;2.95;;;;;;;27.62;32.86;100280.75;5260620;33;33862;-85
2023/06/15 10:37:04;;;;;;;3.60;2.92;;;;;;;27.13;33.19;100283.41;5253958;33;33791;-85
2023/06/15 10:40:29;;;;;;;4.05;3.10;;;;;;;26.99;33.57;100287.13;5254005;33;34189;-85
2023/06/15 10:43:32;;;;;;;4.35;3.03;;;;;;;26.79;33.79;100286.16;5252925;33;34296;-85
2023/06/15 10:46:36;;;;;;;3.17;2.87;;;;;;;26.92;33.64;100290.22;5260795;33;33100;-85
2023/06/15 10:49:50;;;;;;;4.43;2.90;;;;;;;26.95;33.08;100284.13;5260577;33;35860;-85
2023/06/15 10:52:54;;;;;;;4.78;2.95;;;;;;;26.99;33.65;100289.88;5255401;33;34257;-86
2023/06/15 10:55:58;;;;;;;3.22;2.90;;;;;;;27.57;35.36;100276.06;5253534;33;34417;-85
2023/06/15 10:59:05;;;;;;;4.35;2.95;;;;;;;27.75;33.93;100271.72;5258269;33;34175;-85
2023/06/15 11:02:26;;;;;;;9.95;2.92;;;;;;;27.77;32.57;100275.03;5258600;33;33409;-85
2023/06/15 11:05:42;;;;;;;3.37;2.83;;;;;;;27.71;33.00;100268.72;5257548;33;33363;-85
2023/06/15 11:08:46;;;;;;;4.62;3.15;;;;;;;28.16;32.70;100266.50;5241215;33;33243;-85
2023/06/15 11:11:49;;;;;;;6.78;3.20;;;;;;;28.57;34.37;100268.72;5252135;33;34513;-85
2023/06/15 11:14:55;;;;;;;4.87;3.40;;;;;;;29.15;32.59;100264.72;5237273;33;32954;-85
2023/06/15 11:18:00;;;;;;;3.75;2.70;;;;;;;28.31;33.95;100262.69;5353541;28;34931;-90
2023/06/15 11:21:04;;;;;;;3.10;2.78;;;;;;;28.06;32.90;100271.37;5277280;33;33834;-89
2023/06/15 11:24:07;;;;;;;2.90;2.65;;;;;;;27.89;32.17;100266.34;5272463;33;33087;-85
2023/06/15 11:27:12;;;;;;;3.62;2.70;;;;;;;27.28;31.61;100265.06;5275500;33;34393;-85
2023/06/15 11:30:15;;;;;;;3.33;2.90;;;;;;;27.40;31.77;100264.66;5261630;33;33109;-86
2023/06/15 11:33:30;;;;;;;8.35;2.87;;;;;;;27.59;31.84;100268.31;5254259;33;34672;-87
2023/06/15 11:36:33;;;;;;;3.72;2.55;;;;;;;27.96;30.76;100272.31;5249449;33;34889;-87
2023/06/15 11:39:36;;;;;;;4.87;2.70;;;;;;;27.94;30.26;100263.50;5259426;33;33762;-87
2023/06/15 11:42:38;;;;;;;2.97;2.65;;;;;;;28.21;28.83;100263.66;5260900;33;33535;-85
2023/06/15 11:45:46;;;;;;;2.72;2.35;;;;;;;30.30;27.08;100261.03;5247859;33;33274;-85
2023/06/15 11:48:54;;;;;;;2.92;2.53;;;;;;;33.00;23.34;100251.81;5271373;33;34685;-85
2023/06/15 11:51:57;;;;;;;2.80;2.55;;;;;;;34.78;21.53;100254.63;5271224;33;33573;-85
2023/06/15 11:55:08;;;;;;;3.60;3.03;;;;;;;35.50;21.25;100252.31;5257816;33;33110;-86
2023/06/15 11:58:12;;;;;;;4.22;2.50;;;;;;;33.98;23.12;100246.31;5254216;33;33432;-85
2023/06/15 12:01:16;;;;;;;2.37;2.17;;;;;;;34.65;22.95;100238.94;5265028;33;34064;-85
2023/06/15 12:04:19;;;;;;;3.10;2.58;;;;;;;35.82;21.32;100238.56;5242257;33;33903;-86
2023/06/15 12:07:23;;;;;;;3.12;2.50;;;;;;;35.78;21.52;100237.66;5245400;33;33338;-86
2023/06/15 12:10:42;;;;;;;4.15;2.30;;;;;;;36.63;20.76;100230.25;5260159;33;32967;-86
2023/06/15 12:13:47;;;;;;;3.62;2.55;;;;;;;34.58;22.73;100227.50;5256707;33;33019;-86
2023/06/15 12:16:53;;;;;;;2.83;2.42;;;;;;;33.50;22.62;100231.59;5254041;33;34708;-86
2023/06/15 12:20:00;;;;;;;3.10;2.42;;;;;;;34.27;21.49;100225.91;5268447;33;33308;-86
2023/06/15 12:23:07;;;;;;;2.95;2.65;;;;;;;35.93;19.93;100213.72;5244643;33;33413;-86
2023/06/15 12:26:10;;;;;;;3.92;2.53;;;;;;;36.92;18.89;100218.62;5263913;33;34254;-86
2023/06/15 12:29:16;;;;;;;2.50;2.28;;;;;;;37.05;19.49;100213.78;5256687;33;33898;-86
2023/06/15 12:32:23;;;;;;;2.30;2.10;;;;;;;37.62;18.84;100215.25;5268905;33;32934;-86
2023/06/15 12:35:32;;;;;;;3.28;2.37;;;;;;;36.60;19.66;100219.75;5267151;33;33338;-86
2023/06/15 12:38:36;;;;;;;3.70;2.50;;;;;;;34.61;21.38;100210.84;5265913;33;33611;-88
2023/06/15 12:41:42;;;;;;;3.92;2.50;;;;;;;34.08;22.00;100204.88;5265837;33;34536;-90
2023/06/15 12:44:45;;;;;;;3.33;2.42;;;;;;;33.49;22.32;100204.00;5267857;33;33602;-90
2023/06/15 12:47:49;;;;;;;4.30;2.37;;;;;;;33.53;22.52;100203.06;5247386;33;34787;-87
2023/06/15 12:50:52;;;;;;;2.62;2.42;;;;;;;32.79;23.84;100200.63;5244718;33;34748;-86
2023/06/15 12:53:56;;;;;;;3.65;2.53;;;;;;;31.07;25.29;100203.59;5236806;33;33463;-86
2023/06/15 12:56:59;;;;;;;3.92;2.33;;;;;;;30.30;25.78;100201.91;5246085;33;33432;-86
2023/06/15 13:00:04;;;;;;;2.80;2.58;;;;;;;29.58;27.91;100195.94;5252958;33;33139;-86
2023/06/15 13:03:08;;;;;;;3.78;2.50;;;;;;;29.73;26.51;100200.38;5261674;33;33373;-86
2023/06/15 13:06:12;;;;;;;2.40;2.17;;;;;;;32.62;24.57;100190.34;5259202;33;34321;-86
2023/06/15 13:09:15;;;;;;;4.65;2.62;;;;;;;35.01;21.43;100192.63;5235320;33;34051;-86
2023/06/15 13:12:18;;;;;;;2.30;2.00;;;;;;;37.99;18.84;100188.78;5259515;33;33994;-86
2023/06/15 13:15:21;;;;;;;2.30;2.10;;;;;;;39.39;17.32;100181.88;5273800;33;33383;-86
2023/06/15 13:18:26;;;;;;;5.25;2.30;;;;;;;38.68;16.83;100175.75;5274692;33;34880;-86
2023/06/15 13:21:29;;;;;;;3.15;2.28;;;;;;;37.17;18.20;100165.97;5272211;33;34161;-86
2023/06/15 13:24:32;;;;;;;2.42;2.22;;;;;;;36.84;17.54;100176.72;5261928;33;34109;-86
2023/06/15 13:27:38;;;;;;;2.85;2.12;;;;;;;38.08;16.68;100167.69;5250577;33;34203;-85
2023/06/15 13:30:41;;;;;;;2.20;1.87;;;;;;;39.01;15.65;100166.72;5274755;33;33631;-85
2023/06/15 13:33:44;;;;;;;5.78;2.25;;;;;;;38.91;16.95;100170.19;5274703;33;33666;-85
2023/06/15 13:36:50;;;;;;;3.05;2.03;;;;;;;38.67;16.24;100168.53;5259249;33;33987;-85
2023/06/15 13:39:53;;;;;;;2.72;2.20;;;;;;;36.96;16.60;100157.78;5245643;33;34344;-85
2023/06/15 13:42:56;;;;;;;2.15;2.03;;;;;;;35.56;17.72;100154.94;5245912;33;33981;-85
2023/06/15 13:45:59;;;;;;;2.33;2.10;;;;;;;34.61;18.95;100160.50;5259114;33;33283;-85
2023/06/15 13:49:04;;;;;;;2.37;2.17;;;;;;;35.84;18.71;100152.19;5257729;33;33102;-85
2023/06/15 13:52:09;;;;;;;3.62;2.30;;;;;;;35.83;18.90;100148.59;5271384;33;33514;-85
2023/06/15 13:55:12;;;;;;;4.22;2.33;;;;;;;35.11;19.46;100153.06;5270513;33;33745;-85
2023/06/15 13:58:15;;;;;;;9.70;2.58;;;;;;;33.78;20.85;100153.75;5256713;33;34071;-86
2023/06/15 14:01:19;;;;;;;3.40;2.30;;;;;;;33.30;23.04;100141.06;5274942;33;33155;-85
2023/06/15 14:04:23;;;;;;;2.53;2.33;;;;;;;32.86;22.23;100142.41;5269449;33;34807;-84
2023/06/15 14:07:26;;;;;;;4.45;2.50;;;;;;;31.90;22.32;100136.09;5285261;33;33385;-85
2023/06/15 14:10:29;;;;;;;3.08;2.20;;;;;;;31.59;23.93;100145.37;5259182;33;32809;-85
2023/06/15 14:13:32;;;;;;;3.78;2.40;;;;;;;30.98;24.43;100139.59;5230750;33;34033;-85
2023/06/15 14:16:37;;;;;;;3.25;2.30;;;;;;;30.34;24.15;100137.09;5243219;33;33275;-85
2023/06/15 14:19:39;;;;;;;2.85;2.50;;;;;;;30.09;25.64;100146.00;5236459;34;33220;-85
2023/06/15 14:22:42;;;;;;;6.97;2.67;;;;;;;29.91;24.42;100151.41;5217211;33;34041;-85
2023/06/15 14:25:45;;;;;;;4.12;2.58;;;;;;;29.59;25.63;100138.50;5242242;33;33905;-85
2023/06/15 14:28:48;;;;;;;3.70;2.50;;;;;;;29.20;25.30;100144.59;5230678;33;33619;-85
2023/06/15 14:31:51;;;;;;;9.48;2.85;;;;;;;28.66;25.97;100135.87;5230561;33;34014;-85
2023/06/15 14:34:54;;;;;;;5.65;2.72;;;;;;;28.72;27.59;100145.72;5237555;33;34170;-85
2023/06/15 14:37:57;;;;;;;4.30;2.67;;;;;;;28.64;26.97;100135.37;5227953;33;34266;-85
2023/06/15 14:41:00;;;;;;;3.35;2.50;;;;;;;28.01;26.90;100136.66;5248241;33;34128;-84
2023/06/15 14:44:07;;;;;;;4.53;2.75;;;;;;;27.97;26.76;100138.38;5251998;33;34427;-84
2023/06/15 14:47:10;;;;;;;4.20;2.62;;;;;;;28.07;27.00;100135.44;5235534;33;219858;-89
2023/06/15 14:50:13;;;;;;;2.87;2.62;;;;;;;27.69;26.89;100140.12;5228707;33;33260;-89
2023/06/15 14:53:16;;;;;;;3.90;2.60;;;;;;;27.49;27.00;100138.44;5242573;33;33415;-89
2023/06/15 14:56:19;;;;;;;3.00;2.60;;;;;;;27.43;27.40;100134.09;5250269;33;33019;-89
2023/06/15 14:59:22;;;;;;;4.47;2.67;;;;;;;27.19;28.49;100142.44;5219200;34;33744;-85
2023/06/15 15:02:25;;;;;;;3.45;2.78;;;;;;;27.30;28.51;100135.66;5212970;34;33244;-85
2023/06/15 15:05:28;;;;;;;2.95;2.72;;;;;;;27.41;28.60;100133.56;5232890;33;32890;-85
2023/06/15 15:08:31;;;;;;;3.45;2.67;;;;;;;27.22;27.94;100136.31;5230423;33;33810;-85
2023/06/15 15:11:34;;;;;;;3.10;2.60;;;;;;;27.25;27.93;100127.44;5241373;33;33052;-85
2023/06/15 15:14:36;;;;;;;6.25;2.78;;;;;;;27.53;28.10;100126.50;5241981;33;33309;-85
2023/06/15 15:17:40;;;;;;;2.58;2.37;;;;;;;27.41;28.37;100128.03;5247488;33;34847;-85
2023/06/15 15:20:43;;;;;;;2.85;2.58;;;;;;;27.42;27.84;100124.19;5250198;33;32974;-84
2023/06/15 15:23:46;;;;;;;3.15;2.80;;;;;;;27.07;28.57;100124.28;5250571;33;33263;-85
2023/06/15 15:26:49;;;;;;;3.75;2.58;;;;;;;26.79;29.27;100133.44;5252271;33;34099;-84
2023/06/15 15:29:52;;;;;;;4.20;2.83;;;;;;;26.67;28.91;100120.00;5261222;33;33333;-85
2023/06/15 15:32:57;;;;;;;3.72;2.80;;;;;;;26.51;29.23;100126.81;5263283;33;33467;-84
2023/06/15 15:36:00;;;;;;;5.15;3.08;;;;;;;26.43;29.15;100130.97;5271896;33;33351;-85
2023/06/15 15:39:03;;;;;;;3.25;2.95;;;;;;;26.35;29.52;100124.13;5247734;33;33470;-85
2023/06/15 15:42:08;;;;;;;4.22;2.97;;;;;;;26.38;30.10;100134.59;5248234;33;32976;-85
2023/06/15 15:45:11;;;;;;;3.75;2.83;;;;;;;25.94;30.27;100129.13;5272424;33;33366;-85
2023/06/15 15:48:14;;;;;;;4.50;2.83;;;;;;;26.00;30.12;100126.09;5251432;33;33325;-84
2023/06/15 15:51:19;;;;;;;3.47;2.62;;;;;;;26.14;30.44;100125.41;5268381;33;33815;-84
